Search for airport 
image banner adimage banner adimage banner ad
image banner ad

KHPT - Hampton Muni

Located in Hampton, United States

ICAO - HPT, IATA - HPT

Data provided by Airmate  

General information

Coordinates: N42°43'25" W93°13'35"
Elevation is 1176 feet MSL.
Magnetic variation is 03° East
View others Airports in Iowa

Operational data

Special qualification required
Current time UTC:
Current local time:
Weather at : KIFA - Iowa Falls Muni ( 28 km )
METAR: KIFA 181735Z AUTO 33003KT 10SM CLR 29/13 A2990 RMK AO2 T02920131
View NOTAMs / SUP AIP / TFR affecting this airport [VIEW]
Communications frequencies: [VIEW]

Runways:

RWY identifierQFULength (ft)Width (ft)SurfaceLDA (ft)
17180°402075CONC
35402075CONC

Airport contact information

Address: Hampton United States

Satellite view of KHPT